Terminal Aerodrome Forecast
Issued by NWS

Home | Current Version | Previous Version | Text Only | Print | Product List | Glossary On
Versions: 1 2 3 4 5 6 7 8 9 10 11 12 13
804
FTUS45 KABQ 270520
TAFFMN
TAF
KFMN 270520Z 2706/2806 35008KT P6SM BKN110
     FM270800 09006KT P6SM VCSH BKN070
     FM271400 12005KT P6SM SCT150
     FM272000 26008KT P6SM SCT080 BKN110=

USA.gov is the U.S. government's official web portal to all federal, state and local government web resources and services.